createdAt,value
2019-01-03T00:01:22.453Z,103271.80
2019-01-03T00:04:20.732Z,103259.55
2019-01-03T00:07:28.007Z,103258.11
2019-01-03T00:10:16.230Z,103256.87
2019-01-03T00:13:22.281Z,103258.20
2019-01-03T00:16:07.799Z,103253.91
2019-01-03T00:19:06.824Z,103247.00
2019-01-03T00:21:54.907Z,103237.49
2019-01-03T00:24:46.985Z,103240.74
2019-01-03T00:27:34.760Z,103231.76
2019-01-03T00:30:23.034Z,103237.39
2019-01-03T00:33:18.433Z,103239.11
2019-01-03T00:36:06.698Z,103239.97
2019-01-03T00:39:10.471Z,103232.59
2019-01-03T00:41:57.946Z,103241.38
2019-01-03T00:45:05.492Z,103237.08
2019-01-03T00:47:53.456Z,103248.03
2019-01-03T00:50:57.956Z,103249.81
2019-01-03T00:53:40.567Z,103253.28
2019-01-03T00:56:41.966Z,103245.09
2019-01-03T00:59:30.372Z,103259.69
2019-01-03T01:02:18.259Z,103259.08
2019-01-03T01:05:10.315Z,103265.19
2019-01-03T01:07:53.822Z,103259.08
2019-01-03T01:10:43.917Z,103260.89
2019-01-03T01:13:35.948Z,103261.75
2019-01-03T01:16:25.572Z,103272.70
2019-01-03T01:19:24.989Z,103273.78
2019-01-03T01:22:20.692Z,103269.52
2019-01-03T01:25:09.513Z,103273.02
2019-01-03T01:28:04.284Z,103271.27
2019-01-03T01:31:05.499Z,103269.75
2019-01-03T01:34:09.580Z,103279.30
2019-01-03T01:37:11.131Z,103287.99
2019-01-03T01:39:56.967Z,103294.90
2019-01-03T01:42:46.284Z,103296.62
2019-01-03T01:45:41.764Z,103304.10
2019-01-03T01:48:37.599Z,103315.09
2019-01-03T01:51:24.073Z,103309.45
2019-01-03T01:54:19.724Z,103313.41
2019-01-03T01:57:07.739Z,103312.06
2019-01-03T02:00:00.214Z,103310.59
2019-01-03T02:02:48.753Z,103322.00
2019-01-03T02:05:39.137Z,103323.75
2019-01-03T02:08:43.404Z,103326.47
2019-01-03T02:11:33.096Z,103321.14
2019-01-03T02:14:22.104Z,103322.45
2019-01-03T02:17:18.072Z,103325.67
2019-01-03T02:20:05.760Z,103326.81
2019-01-03T02:22:55.095Z,103329.45
2019-01-03T02:25:47.625Z,103338.66
2019-01-03T02:28:36.936Z,103327.77
2019-01-03T02:31:27.579Z,103333.12
2019-01-03T02:34:32.081Z,103323.25
2019-01-03T02:37:38.636Z,103320.64
2019-01-03T02:40:26.665Z,103311.88
2019-01-03T02:43:14.385Z,103314.91
2019-01-03T02:46:02.845Z,103310.19
2019-01-03T02:48:50.604Z,103315.95
2019-01-03T02:51:42.597Z,103313.76
2019-01-03T02:54:37.665Z,103309.48
2019-01-03T02:57:27.022Z,103305.54
2019-01-03T03:00:16.909Z,103298.11
2019-01-03T03:03:04.603Z,103291.14
2019-01-03T03:06:02.851Z,103280.31
2019-01-03T03:08:56.591Z,103280.10
2019-01-03T03:11:56.227Z,103272.95
2019-01-03T03:14:39.674Z,103269.38
2019-01-03T03:17:30.906Z,103261.48
2019-01-03T03:20:29.537Z,103261.13
2019-01-03T03:23:47.544Z,103267.22
2019-01-03T03:26:26.009Z,103266.83
2019-01-03T03:29:21.561Z,103253.63
2019-01-03T03:32:11.912Z,103255.02
2019-01-03T03:35:13.240Z,103252.79
2019-01-03T03:38:02.032Z,103252.41
2019-01-03T03:40:49.970Z,103247.69
2019-01-03T03:43:39.363Z,103251.16
2019-01-03T03:46:31.146Z,103240.98
2019-01-03T03:49:19.235Z,103247.06
2019-01-03T03:52:06.945Z,103249.05
2019-01-03T03:54:54.937Z,103254.22
2019-01-03T03:57:44.221Z,103257.30
2019-01-03T04:00:35.422Z,103262.80
2019-01-03T04:03:23.406Z,103261.70
2019-01-03T04:06:12.708Z,103258.19
2019-01-03T04:09:00.632Z,103248.61
2019-01-03T04:11:48.395Z,103245.94
2019-01-03T04:14:36.182Z,103244.42
2019-01-03T04:17:33.677Z,103246.17
2019-01-03T04:20:21.688Z,103250.00
2019-01-03T04:23:17.158Z,103250.89
2019-01-03T04:26:05.749Z,103250.03
2019-01-03T04:28:53.924Z,103246.17
2019-01-03T04:31:49.230Z,103251.88
2019-01-03T04:34:47.469Z,103248.78
2019-01-03T04:37:36.768Z,103242.30
2019-01-03T04:40:24.279Z,103242.52
2019-01-03T04:43:12.479Z,103247.23
2019-01-03T04:46:09.340Z,103241.97
2019-01-03T04:48:57.393Z,103240.64
2019-01-03T04:52:04.538Z,103239.30
2019-01-03T04:54:59.042Z,103248.18
2019-01-03T04:57:47.123Z,103247.73
2019-01-03T05:00:44.941Z,103250.23
2019-01-03T05:03:40.912Z,103247.73
2019-01-03T05:06:28.749Z,103251.29
2019-01-03T05:09:27.167Z,103249.52
2019-01-03T05:12:30.449Z,103245.98
2019-01-03T05:15:34.894Z,103242.25
2019-01-03T05:18:42.453Z,103239.78
2019-01-03T05:21:31.849Z,103246.43
2019-01-03T05:24:33.064Z,103247.34
2019-01-03T05:27:25.678Z,103249.21
2019-01-03T05:30:33.445Z,103243.84
2019-01-03T05:33:31.639Z,103249.07
2019-01-03T05:36:32.941Z,103245.78
2019-01-03T05:39:27.958Z,103245.73
2019-01-03T05:42:17.280Z,103235.33
2019-01-03T05:45:06.566Z,103240.12
2019-01-03T05:48:01.801Z,103229.66
2019-01-03T05:51:06.231Z,103232.17
2019-01-03T05:53:53.961Z,103241.78
2019-01-03T05:56:40.258Z,103250.63
2019-01-03T05:59:32.568Z,103252.85
2019-01-03T06:02:30.873Z,103248.04
2019-01-03T06:05:32.012Z,103247.15
2019-01-03T06:08:25.279Z,103245.34
2019-01-03T06:11:09.638Z,103256.13
2019-01-03T06:13:59.161Z,103251.29
2019-01-03T06:17:06.682Z,103250.26
2019-01-03T06:19:53.816Z,103251.66
2019-01-03T06:22:58.280Z,103255.63
2019-01-03T06:25:45.962Z,103249.13
2019-01-03T06:28:35.432Z,103249.93
2019-01-03T06:31:24.859Z,103254.41
2019-01-03T06:34:24.468Z,103258.02
2019-01-03T06:37:18.146Z,103255.80
2019-01-03T06:40:16.313Z,103253.79
2019-01-03T06:43:04.408Z,103247.98
2019-01-03T06:45:58.170Z,103248.34
2019-01-03T06:48:46.174Z,103252.51
2019-01-03T06:51:38.665Z,103260.47
2019-01-03T06:54:28.263Z,103268.67
2019-01-03T06:57:15.226Z,103269.03
2019-01-03T07:00:20.025Z,103271.78
2019-01-03T07:03:07.831Z,103268.75
2019-01-03T07:05:55.919Z,103272.09
2019-01-03T07:08:51.133Z,103276.44
2019-01-03T07:11:47.870Z,103276.32
2019-01-03T07:14:35.868Z,103272.34
2019-01-03T07:17:35.165Z,103269.20
2019-01-03T07:20:22.983Z,103271.53
2019-01-03T07:23:12.376Z,103266.34
2019-01-03T07:26:00.086Z,103276.44
2019-01-03T07:28:47.857Z,103275.88
2019-01-03T07:31:49.559Z,103283.30
2019-01-03T07:34:53.843Z,103285.52
2019-01-03T07:38:01.514Z,103280.66
2019-01-03T07:40:51.825Z,103286.08
2019-01-03T07:43:40.108Z,103281.63
2019-01-03T07:46:28.106Z,103288.20
2019-01-03T07:49:18.661Z,103292.03
2019-01-03T07:52:06.842Z,103284.61
2019-01-03T07:55:02.618Z,103287.66
2019-01-03T07:58:07.143Z,103293.38
2019-01-03T08:00:56.567Z,103298.98
2019-01-03T08:03:45.000Z,103295.36
2019-01-03T08:06:46.520Z,103301.06
2019-01-03T08:09:34.183Z,103306.27
2019-01-03T08:12:26.318Z,103303.56
2019-01-03T08:15:17.698Z,103306.27
2019-01-03T08:18:01.079Z,103306.88
2019-01-03T08:20:49.109Z,103312.61
2019-01-03T08:23:41.244Z,103316.56
2019-01-03T08:26:44.895Z,103315.81
2019-01-03T08:29:32.793Z,103309.61
2019-01-03T08:32:20.769Z,103311.19
2019-01-03T08:35:17.101Z,103312.58
2019-01-03T08:37:59.906Z,103311.00
2019-01-03T08:41:01.435Z,103315.42
2019-01-03T08:43:49.308Z,103316.34
2019-01-03T08:46:36.997Z,103315.92
2019-01-03T08:49:35.146Z,103319.38
2019-01-03T08:52:33.436Z,103303.69
2019-01-03T08:55:25.673Z,103310.72
2019-01-03T08:58:11.839Z,103319.18
2019-01-03T09:01:00.120Z,103317.06
2019-01-03T09:03:48.216Z,103324.52
2019-01-03T09:06:43.592Z,103334.53
2019-01-03T09:09:38.695Z,103331.55
2019-01-03T09:12:26.465Z,103328.70
2019-01-03T09:15:14.444Z,103323.45
2019-01-03T09:18:18.691Z,103334.86
2019-01-03T09:21:13.890Z,103338.52
2019-01-03T09:24:02.445Z,103332.45
2019-01-03T09:27:00.114Z,103333.66
2019-01-03T09:29:41.683Z,103335.01
2019-01-03T09:32:40.043Z,103342.55
2019-01-03T09:35:32.635Z,103338.47
2019-01-03T09:38:31.300Z,103338.94
2019-01-03T09:41:19.047Z,103345.14
2019-01-03T09:44:22.968Z,103348.94
2019-01-03T09:46:53.369Z,103345.58
2019-01-03T09:49:23.867Z,103358.12
2019-01-03T09:51:55.702Z,103358.79
2019-01-03T09:54:26.273Z,103358.47
2019-01-03T09:56:59.222Z,103363.05
2019-01-03T09:59:32.805Z,103364.86
2019-01-03T10:02:03.111Z,103363.52
2019-01-03T10:04:33.584Z,103354.64
2019-01-03T10:07:04.977Z,103356.84
2019-01-03T10:09:35.490Z,103351.47
2019-01-03T10:12:06.271Z,103354.08
2019-01-03T10:14:38.927Z,103345.50
2019-01-03T10:17:09.263Z,103345.24
2019-01-03T10:19:42.395Z,103339.70
2019-01-03T10:22:14.800Z,103344.71
2019-01-03T10:24:48.308Z,103340.95
2019-01-03T10:27:18.688Z,103336.37
2019-01-03T10:29:51.343Z,103333.83
2019-01-03T10:32:21.770Z,103324.30
2019-01-03T10:34:52.225Z,103330.97
2019-01-03T10:37:22.635Z,103321.47
2019-01-03T10:39:53.049Z,103317.07
2019-01-03T10:42:23.555Z,103322.88
2019-01-03T10:44:57.098Z,103316.81
2019-01-03T10:47:27.604Z,103312.84
2019-01-03T10:49:59.597Z,103308.94
2019-01-03T10:52:29.980Z,103314.24
2019-01-03T10:55:00.380Z,103309.62
2019-01-03T10:57:33.582Z,103309.22
2019-01-03T11:00:04.359Z,103310.36
2019-01-03T11:02:34.746Z,103300.02
2019-01-03T11:05:05.315Z,103300.08
2019-01-03T11:07:35.696Z,103300.60
2019-01-03T11:10:09.782Z,103311.41
2019-01-03T11:12:40.735Z,103306.95
2019-01-03T11:15:11.203Z,103309.09
2019-01-03T11:17:41.617Z,103301.45
2019-01-03T11:20:16.053Z,103306.69
2019-01-03T11:22:46.622Z,103294.84
2019-01-03T11:25:18.191Z,103289.46
2019-01-03T11:27:52.172Z,103286.47
2019-01-03T11:30:26.290Z,103288.75
2019-01-03T11:32:59.421Z,103293.16
2019-01-03T11:35:30.464Z,103290.19
2019-01-03T11:38:01.143Z,103290.29
2019-01-03T11:40:31.445Z,103285.14
2019-01-03T11:43:01.786Z,103274.31
2019-01-03T11:45:33.049Z,103263.86
2019-01-03T11:48:03.608Z,103268.31
2019-01-03T11:50:34.021Z,103269.98
2019-01-03T11:53:04.910Z,103269.02
2019-01-03T11:55:38.614Z,103268.05
2019-01-03T11:58:09.622Z,103269.83
2019-01-03T12:00:40.185Z,103268.94
2019-01-03T12:03:10.683Z,103265.42
2019-01-03T12:05:41.090Z,103268.16
2019-01-03T12:08:11.551Z,103256.84
2019-01-03T12:10:41.918Z,103254.16
2019-01-03T12:13:15.174Z,103264.19
2019-01-03T12:15:45.590Z,103264.20
2019-01-03T12:18:18.088Z,103262.80
2019-01-03T12:20:48.458Z,103262.37
2019-01-03T12:23:18.889Z,103248.91
2019-01-03T12:25:51.005Z,103248.59
2019-01-03T12:28:21.438Z,103244.66
2019-01-03T12:30:51.923Z,103252.11
2019-01-03T12:33:22.290Z,103253.23
2019-01-03T12:35:52.929Z,103242.28
2019-01-03T12:38:23.312Z,103253.99
2019-01-03T12:40:54.485Z,103261.28
2019-01-03T12:43:36.032Z,103261.67
2019-01-03T12:46:06.825Z,103260.81
2019-01-03T12:48:37.204Z,103268.80
2019-01-03T12:51:07.611Z,103267.84
2019-01-03T12:53:38.516Z,103263.92
2019-01-03T12:56:08.842Z,103264.45
2019-01-03T12:58:39.260Z,103260.87
2019-01-03T13:01:09.586Z,103253.48
2019-01-03T13:03:39.948Z,103246.99
2019-01-03T13:06:10.309Z,103238.36
2019-01-03T13:08:40.751Z,103238.03
2019-01-03T13:11:13.135Z,103237.21
2019-01-03T13:13:43.567Z,103235.84
2019-01-03T13:16:14.238Z,103232.81
2019-01-03T13:18:44.591Z,103232.81
2019-01-03T13:21:16.253Z,103234.97
2019-01-03T13:23:46.787Z,103237.59
2019-01-03T13:26:17.214Z,103244.18
2019-01-03T13:28:49.918Z,103254.26
2019-01-03T13:31:20.879Z,103253.83
2019-01-03T13:33:51.260Z,103262.65
2019-01-03T13:36:21.592Z,103263.86
2019-01-03T13:38:52.031Z,103262.17
2019-01-03T13:41:23.973Z,103264.88
2019-01-03T13:43:59.262Z,103264.05
2019-01-03T13:46:29.724Z,103263.84
2019-01-03T13:49:02.296Z,103262.90
2019-01-03T13:51:33.085Z,103255.02
2019-01-03T13:54:03.844Z,103255.50
2019-01-03T13:56:38.431Z,103263.75
2019-01-03T13:59:11.422Z,103263.73
2019-01-03T14:01:43.425Z,103249.84
2019-01-03T14:04:17.132Z,103252.08
2019-01-03T14:06:48.165Z,103252.93
2019-01-03T14:09:20.346Z,103249.42
2019-01-03T14:11:53.283Z,103256.44
2019-01-03T14:14:24.116Z,103252.91
2019-01-03T14:16:55.517Z,103264.73
2019-01-03T14:19:26.200Z,103262.12
2019-01-03T14:21:56.471Z,103261.72
2019-01-03T14:24:30.678Z,103261.28
2019-01-03T14:27:01.114Z,103272.25
2019-01-03T14:29:31.650Z,103266.13
2019-01-03T14:32:07.365Z,103261.73
2019-01-03T14:34:38.676Z,103259.59
2019-01-03T14:37:09.294Z,103256.05
2019-01-03T14:39:39.746Z,103259.57
2019-01-03T14:42:11.515Z,103253.49
2019-01-03T14:44:41.955Z,103256.48
2019-01-03T14:47:13.199Z,103260.52
2019-01-03T14:49:43.676Z,103256.15
2019-01-03T14:52:14.618Z,103257.44
2019-01-03T14:54:45.015Z,103261.80
2019-01-03T14:57:15.566Z,103266.20
2019-01-03T14:59:46.683Z,103264.41
2019-01-03T15:02:17.460Z,103258.66
2019-01-03T15:04:48.242Z,103266.09
2019-01-03T15:07:18.759Z,103259.64
2019-01-03T15:09:49.160Z,103260.48
2019-01-03T15:12:19.497Z,103259.61
2019-01-03T15:14:49.877Z,103251.70
2019-01-03T15:17:20.231Z,103261.28
2019-01-03T15:19:50.871Z,103267.32
2019-01-03T15:22:22.169Z,103275.23
2019-01-03T15:24:52.754Z,103275.20
2019-01-03T15:27:26.485Z,103274.00
2019-01-03T15:29:56.879Z,103267.36
2019-01-03T15:32:27.474Z,103279.15
2019-01-03T15:34:57.887Z,103275.55
2019-01-03T15:37:31.206Z,103279.91
2019-01-03T15:40:03.733Z,103277.30
2019-01-03T15:42:34.076Z,103283.40
2019-01-03T15:45:05.141Z,103279.48
2019-01-03T15:47:35.766Z,103289.69
2019-01-03T15:50:06.554Z,103283.89
2019-01-03T15:52:37.013Z,103279.13
2019-01-03T15:55:08.174Z,103285.30
2019-01-03T15:57:38.654Z,103285.68
2019-01-03T16:00:10.975Z,103289.09
2019-01-03T16:02:41.362Z,103280.78
2019-01-03T16:05:12.002Z,103279.02
2019-01-03T16:07:42.432Z,103282.91
2019-01-03T16:10:14.564Z,103286.45
2019-01-03T16:12:45.174Z,103289.91
2019-01-03T16:15:15.663Z,103290.84
2019-01-03T16:17:46.161Z,103286.38
2019-01-03T16:20:16.665Z,103287.29
2019-01-03T16:22:47.383Z,103286.34
2019-01-03T16:25:18.279Z,103282.03
2019-01-03T16:27:48.965Z,103286.45
2019-01-03T16:30:26.154Z,103282.39
2019-01-03T16:32:56.866Z,103292.95
2019-01-03T16:35:27.288Z,103298.30
2019-01-03T16:37:57.687Z,103299.04
2019-01-03T16:40:28.067Z,103282.86
2019-01-03T16:42:58.521Z,103279.39
2019-01-03T16:45:28.893Z,103285.82
2019-01-03T16:47:59.454Z,103285.05
2019-01-03T16:50:29.869Z,103292.07
2019-01-03T16:53:00.387Z,103289.38
2019-01-03T16:55:33.133Z,103287.53
2019-01-03T16:58:03.560Z,103291.52
2019-01-03T17:00:33.944Z,103292.77
2019-01-03T17:03:04.559Z,103291.93
2019-01-03T17:05:35.044Z,103296.76
2019-01-03T17:08:05.435Z,103296.30
2019-01-03T17:10:37.811Z,103300.31
2019-01-03T17:13:12.229Z,103297.25
2019-01-03T17:15:42.668Z,103294.53
2019-01-03T17:18:13.049Z,103298.98
2019-01-03T17:20:43.488Z,103292.02
2019-01-03T17:23:13.887Z,103293.12
2019-01-03T17:25:44.496Z,103291.81
2019-01-03T17:28:15.288Z,103301.91
2019-01-03T17:30:47.938Z,103312.45
2019-01-03T17:33:18.276Z,103298.03
2019-01-03T17:35:48.638Z,103314.87
2019-01-03T17:38:19.095Z,103302.72
2019-01-03T17:40:49.553Z,103300.54
2019-01-03T17:43:19.930Z,103300.05
2019-01-03T17:45:50.338Z,103301.72
2019-01-03T17:48:20.913Z,103294.37
2019-01-03T17:50:56.222Z,103308.30
2019-01-03T17:53:26.879Z,103305.02
2019-01-03T17:55:57.198Z,103305.69
2019-01-03T17:58:29.742Z,103311.03
2019-01-03T18:01:00.125Z,103314.09
2019-01-03T18:03:32.005Z,103311.39
2019-01-03T18:06:02.408Z,103315.36
2019-01-03T18:08:32.830Z,103310.03
2019-01-03T18:11:03.395Z,103302.65
2019-01-03T18:13:34.230Z,103293.08
2019-01-03T18:16:04.596Z,103290.48
2019-01-03T18:18:36.772Z,103288.69
2019-01-03T18:21:07.250Z,103284.18
2019-01-03T18:23:37.721Z,103278.98
2019-01-03T18:26:08.099Z,103301.61
2019-01-03T18:28:38.640Z,103299.45
2019-01-03T18:31:09.071Z,103303.28
2019-01-03T18:33:39.682Z,103303.27
2019-01-03T18:36:10.320Z,103306.80
2019-01-03T18:38:41.178Z,103294.15
2019-01-03T18:41:11.927Z,103303.31
2019-01-03T18:43:43.105Z,103309.88
2019-01-03T18:46:14.950Z,103301.06
2019-01-03T18:48:47.865Z,103302.38
2019-01-03T18:51:18.931Z,103312.02
2019-01-03T18:53:51.023Z,103301.05
2019-01-03T18:56:21.403Z,103314.97
2019-01-03T18:58:51.799Z,103322.50
2019-01-03T19:01:22.423Z,103316.80
2019-01-03T19:03:52.806Z,103322.92
2019-01-03T19:06:24.682Z,103319.45
2019-01-03T19:08:55.554Z,103319.94
2019-01-03T19:11:25.941Z,103314.58
2019-01-03T19:13:56.625Z,103309.37
2019-01-03T19:16:27.247Z,103311.96
2019-01-03T19:18:58.051Z,103303.59
2019-01-03T19:21:28.465Z,103304.03
2019-01-03T19:23:59.087Z,103318.40
2019-01-03T19:26:31.907Z,103325.05
2019-01-03T19:29:06.160Z,103315.78
2019-01-03T19:31:39.661Z,103320.56
2019-01-03T19:34:10.091Z,103328.02
2019-01-03T19:36:40.606Z,103323.91
2019-01-03T19:39:12.437Z,103324.04
2019-01-03T19:41:42.852Z,103334.84
2019-01-03T19:44:13.834Z,103339.66
2019-01-03T19:46:44.622Z,103345.29
2019-01-03T19:49:15.234Z,103345.73
2019-01-03T19:51:46.222Z,103347.54
2019-01-03T19:54:16.612Z,103342.41
2019-01-03T19:56:47.236Z,103338.90
2019-01-03T19:59:17.567Z,103345.31
2019-01-03T20:01:49.073Z,103342.64
2019-01-03T20:04:19.498Z,103338.46
2019-01-03T20:06:50.251Z,103346.39
2019-01-03T20:09:20.709Z,103346.59
2019-01-03T20:11:56.346Z,103348.34
2019-01-03T20:14:30.886Z,103347.91
2019-01-03T20:17:02.893Z,103340.21
2019-01-03T20:19:33.364Z,103349.55
2019-01-03T20:22:05.299Z,103348.40
2019-01-03T20:24:36.575Z,103349.79
2019-01-03T20:27:08.197Z,103346.16
2019-01-03T20:29:38.752Z,103338.67
2019-01-03T20:32:09.550Z,103340.47
2019-01-03T20:34:39.931Z,103343.54
2019-01-03T20:37:10.440Z,103342.72
2019-01-03T20:39:40.946Z,103347.46
2019-01-03T20:42:11.360Z,103349.29
2019-01-03T20:44:41.782Z,103337.46
2019-01-03T20:47:12.282Z,103339.30
2019-01-03T20:49:45.911Z,103340.00
2019-01-03T20:52:17.381Z,103340.89
2019-01-03T20:54:48.945Z,103340.50
2019-01-03T20:57:19.440Z,103334.13
2019-01-03T20:59:49.871Z,103333.56
2019-01-03T21:02:20.263Z,103338.30
2019-01-03T21:04:53.313Z,103339.59
2019-01-03T21:07:25.248Z,103340.73
2019-01-03T21:09:55.827Z,103340.39
2019-01-03T21:12:26.825Z,103336.86
2019-01-03T21:15:00.237Z,103336.86
2019-01-03T21:17:31.846Z,103331.60
2019-01-03T21:20:03.275Z,103319.46
2019-01-03T21:22:34.632Z,103323.17
2019-01-03T21:25:05.728Z,103328.02
2019-01-03T21:27:36.460Z,103328.02
2019-01-03T21:30:09.643Z,103327.99
2019-01-03T21:32:40.968Z,103327.45
2019-01-03T21:35:11.337Z,103326.15
2019-01-03T21:37:41.864Z,103326.08
2019-01-03T21:40:12.624Z,103325.61
2019-01-03T21:42:43.042Z,103329.02
2019-01-03T21:45:13.870Z,103334.14
2019-01-03T21:47:44.252Z,103335.80
2019-01-03T21:50:14.668Z,103332.77
2019-01-03T21:52:45.035Z,103333.98
2019-01-03T21:55:15.659Z,103336.53
2019-01-03T21:57:46.119Z,103342.25
2019-01-03T22:00:16.847Z,103340.09
2019-01-03T22:02:47.329Z,103338.23
2019-01-03T22:05:17.867Z,103339.56
2019-01-03T22:07:51.386Z,103334.70
2019-01-03T22:10:22.067Z,103338.65
2019-01-03T22:12:54.309Z,103341.66
2019-01-03T22:15:25.315Z,103328.16
2019-01-03T22:17:55.710Z,103341.78
2019-01-03T22:20:26.361Z,103338.98
2019-01-03T22:22:56.766Z,103339.66
2019-01-03T22:25:27.407Z,103334.45
2019-01-03T22:27:57.977Z,103334.09
2019-01-03T22:30:28.450Z,103333.11
2019-01-03T22:32:59.015Z,103334.39
2019-01-03T22:35:29.300Z,103335.64
2019-01-03T22:38:02.705Z,103329.72
2019-01-03T22:40:33.087Z,103331.81
2019-01-03T22:43:03.478Z,103335.39
2019-01-03T22:45:34.046Z,103334.84
2019-01-03T22:48:04.517Z,103343.94
2019-01-03T22:50:38.053Z,103337.93
2019-01-03T22:53:08.447Z,103332.70
2019-01-03T22:55:38.873Z,103334.09
2019-01-03T22:58:09.248Z,103335.70
2019-01-03T23:00:43.077Z,103336.20
2019-01-03T23:03:13.436Z,103337.12
2019-01-03T23:05:43.894Z,103340.55
2019-01-03T23:08:17.090Z,103342.24
2019-01-03T23:10:47.473Z,103338.40
2019-01-03T23:13:17.935Z,103340.44
2019-01-03T23:15:48.300Z,103338.59
2019-01-03T23:18:18.716Z,103341.27
2019-01-03T23:20:49.082Z,103330.75
2019-01-03T23:23:19.430Z,103332.89
2019-01-03T23:25:49.955Z,103328.08
2019-01-03T23:28:23.353Z,103328.50
2019-01-03T23:30:53.724Z,103318.84
2019-01-03T23:33:24.075Z,103318.29
2019-01-03T23:35:54.567Z,103316.03
2019-01-03T23:38:24.972Z,103316.95
2019-01-03T23:40:56.890Z,103319.95
2019-01-03T23:43:27.224Z,103316.72
2019-01-03T23:46:00.767Z,103316.30
2019-01-03T23:48:31.630Z,103309.70
2019-01-03T23:51:05.103Z,103312.20
2019-01-03T23:53:37.916Z,103316.45
2019-01-03T23:56:10.272Z,103309.44
2019-01-03T23:58:40.597Z,103313.27
